MV Fenella — A8YX7 — position and weather

sailwx.info

Track history (hours):
 
Tides and Currents Weather Stations Pressure Air Temp Water Temp Dewpoint Dewpoint Depression Visibility Wind Speed Wind Dir Waves Ship Positions

MV Fenella

Last reported at 2014-Oct-07 11:11 UTC. Time now 2014-Nov-01 10:34 UTC.
Position N 43°28' W 069°54'.
Warning: this ship's position is 24 days out of date.

Length 159 m; draft 10.1 m.

Type: Cargo ship. MMSI: 636092234.

Date/timePositionNaut miles runAvg speedWind from/ knotsBaromVisibWave heightAir tempDewpointWater temp
2014-Oct-07 11:11N 43°28' W 069°54'812.5
2014-Oct-07 10:33N 43°31' W 070°04'10 9.6
2014-Oct-07 09:33N 43°38' W 070°13'1 0.7
2014-Oct-07 07:23N 43°40' W 070°13'0 0.0
2014-Oct-07 06:29N 43°40' W 070°13'0 0.0
2014-Oct-07 05:29N 43°40' W 070°13'0 0.0
2014-Oct-07 04:29N 43°40' W 070°13'0 0.1
2014-Oct-07 03:33N 43°39' W 070°13'2 0.0
2014-Oct-05 11:07N 43°39' W 070°16'3 5.6
2014-Oct-05 10:34N 43°38' W 070°12'9 7.9
2014-Oct-05 09:26N 43°32' W 070°02'  
Track history (hours):
 
Tides and Currents Weather Stations Pressure Air Temp Water Temp Dewpoint Dewpoint Depression Visibility Wind Speed Wind Dir Waves Ship Positions

MV Fenella

Last reported at 2014-Oct-07 11:11 UTC. Time now 2014-Nov-01 10:34 UTC.
Position N 43°28' W 069°54'.
Warning: this ship's position is 24 days out of date.

Length 159 m; draft 10.1 m.

Type: Cargo ship. MMSI: 636092234.

Date/timePositionNaut miles runAvg speedWind from/ knotsBaromVisibWave heightAir tempDewpointWater temp
2014-Oct-07 11:11N 43°28' W 069°54'812.5
2014-Oct-07 10:33N 43°31' W 070°04'10 9.6
2014-Oct-07 09:33N 43°38' W 070°13'1 0.7
2014-Oct-07 07:23N 43°40' W 070°13'0 0.0
2014-Oct-07 06:29N 43°40' W 070°13'0 0.0
2014-Oct-07 05:29N 43°40' W 070°13'0 0.0
2014-Oct-07 04:29N 43°40' W 070°13'0 0.1
2014-Oct-07 03:33N 43°39' W 070°13'2 0.0
2014-Oct-05 11:07N 43°39' W 070°16'3 5.6
2014-Oct-05 10:34N 43°38' W 070°12'9 7.9
2014-Oct-05 09:26N 43°32' W 070°02'  

Dump ship's entire track history